Time;durP1;ratioP1;P1;durP2;ratioP2;P2;SDS_P1;SDS_P2;PMS_P1;PMS_P2;Temp;Humidity;BMP_temperature;BMP_pressure;BME280_temperature;BME280_humidity;BME280_pressure;Samples;Min_cycle;Max_cycle;Signal;HPM_P1;HPM_P2
2022/07/25 00:00:40;;;;;;;5.20;4.70;;;25.30;99.90;;;;;;4233207;28;20210;-81
2022/07/25 00:02:42;;;;;;;5.30;4.80;;;25.30;99.90;;;;;;4232980;28;20218;-81
2022/07/25 00:04:45;;;;;;;4.85;4.35;;;25.20;99.90;;;;;;4232743;28;20262;-81
2022/07/25 00:06:47;;;;;;;5.05;4.60;;;25.30;99.90;;;;;;4232532;28;20236;-81
2022/07/25 00:08:50;;;;;;;5.47;4.68;;;25.30;99.90;;;;;;4232678;28;20218;-81
2022/07/25 00:10:52;;;;;;;5.10;4.70;;;25.30;99.90;;;;;;4232682;28;20222;-81
2022/07/25 00:12:56;;;;;;;5.28;4.78;;;25.30;99.90;;;;;;4232883;28;20217;-81
2022/07/25 00:14:58;;;;;;;5.28;4.65;;;25.30;99.90;;;;;;4232684;28;20201;-81
2022/07/25 00:17:01;;;;;;;5.95;4.70;;;25.20;99.90;;;;;;4232822;28;20209;-81
2022/07/25 00:19:03;;;;;;;5.40;4.90;;;25.30;99.90;;;;;;4232693;28;20221;-81
2022/07/25 00:21:06;;;;;;;5.38;4.90;;;25.30;99.90;;;;;;4232138;28;20627;-81
2022/07/25 00:23:08;;;;;;;5.22;4.72;;;25.30;99.90;;;;;;4232414;28;20542;-81
2022/07/25 00:25:11;;;;;;;5.43;4.75;;;25.20;99.90;;;;;;4232360;28;20259;-80
2022/07/25 00:27:14;;;;;;;4.95;4.45;;;25.30;99.90;;;;;;4232244;28;20758;-81
2022/07/25 00:29:17;;;;;;;5.63;5.13;;;25.20;99.90;;;;;;4232141;28;20553;-80
2022/07/25 00:31:20;;;;;;;5.80;4.80;;;25.20;99.90;;;;;;4232571;28;20214;-81
2022/07/25 00:33:22;;;;;;;5.57;4.78;;;25.20;99.90;;;;;;4232237;28;20271;-81
2022/07/25 00:35:24;;;;;;;5.50;5.00;;;25.20;99.90;;;;;;4232415;28;20271;-81
2022/07/25 00:37:27;;;;;;;5.40;4.95;;;25.20;99.90;;;;;;4232584;28;20269;-81
2022/07/25 00:39:29;;;;;;;4.95;4.47;;;25.20;99.90;;;;;;4232419;28;20661;-81
2022/07/25 00:41:31;;;;;;;6.90;5.20;;;25.20;99.90;;;;;;4232148;28;20569;-81
2022/07/25 00:43:34;;;;;;;5.95;4.95;;;25.20;99.90;;;;;;4232022;28;20218;-81
2022/07/25 00:45:38;;;;;;;5.10;4.57;;;25.20;99.90;;;;;;4231991;28;20217;-81
2022/07/25 00:47:40;;;;;;;5.15;4.75;;;25.20;99.90;;;;;;4231933;28;20233;-81
2022/07/25 00:49:42;;;;;;;5.88;5.28;;;25.20;99.90;;;;;;4232405;28;20646;-81
2022/07/25 00:51:45;;;;;;;5.68;5.18;;;25.20;99.90;;;;;;4232116;28;20218;-81
2022/07/25 00:53:47;;;;;;;5.30;4.80;;;25.20;99.90;;;;;;4231991;28;20218;-81
2022/07/25 00:55:50;;;;;;;5.28;4.78;;;25.20;99.90;;;;;;4231942;28;20251;-81
2022/07/25 00:57:52;;;;;;;6.47;5.50;;;25.20;99.90;;;;;;4231945;28;20611;-81
2022/07/25 00:59:54;;;;;;;5.72;5.05;;;25.20;99.90;;;;;;4231822;28;20210;-81
2022/07/25 01:01:58;;;;;;;5.40;4.90;;;25.20;99.90;;;;;;4232382;28;20767;-80
2022/07/25 01:04:01;;;;;;;5.80;5.00;;;25.20;99.90;;;;;;4232252;28;20213;-80
2022/07/25 01:06:03;;;;;;;5.25;4.75;;;25.20;99.90;;;;;;4231460;28;20221;-80
2022/07/25 01:08:06;;;;;;;6.35;5.18;;;25.20;99.90;;;;;;4231460;28;20279;-80
2022/07/25 01:10:09;;;;;;;6.00;5.40;;;25.10;99.90;;;;;;4231691;28;20218;-80
2022/07/25 01:12:12;;;;;;;6.45;4.95;;;25.10;99.90;;;;;;4231342;28;20270;-80
2022/07/25 01:14:14;;;;;;;5.90;5.40;;;25.20;99.90;;;;;;4231630;28;20661;-80
2022/07/25 01:16:17;;;;;;;5.32;4.82;;;25.10;99.90;;;;;;4231793;28;20214;-80
2022/07/25 01:18:20;;;;;;;5.63;5.15;;;25.10;99.90;;;;;;4231465;28;20213;-80
2022/07/25 01:20:26;;;;;;;6.38;4.97;;;25.10;99.90;;;;;;4231709;28;20221;-80
2022/07/25 01:22:28;;;;;;;6.30;5.10;;;25.20;99.90;;;;;;4231617;28;20201;-80
2022/07/25 01:24:31;;;;;;;5.45;4.95;;;25.10;99.90;;;;;;4231534;28;20259;-80
2022/07/25 01:26:33;;;;;;;5.20;4.70;;;25.10;99.90;;;;;;4231387;28;20213;-80
2022/07/25 01:28:35;;;;;;;5.78;5.18;;;25.10;99.90;;;;;;4231134;28;20230;-80
2022/07/25 01:30:38;;;;;;;5.68;5.18;;;25.20;99.90;;;;;;4231533;28;20240;-80
2022/07/25 01:32:41;;;;;;;5.43;4.93;;;25.10;99.90;;;;;;4231186;28;20726;-80
2022/07/25 01:34:43;;;;;;;4.70;4.30;;;25.20;99.90;;;;;;4231293;28;20217;-80
2022/07/25 01:36:47;;;;;;;5.65;5.13;;;25.10;99.90;;;;;;4231030;28;20218;-80
2022/07/25 01:38:50;;;;;;;5.97;5.28;;;25.10;99.90;;;;;;4231235;28;20214;-80
2022/07/25 01:40:52;;;;;;;5.38;4.88;;;25.10;99.90;;;;;;4230579;28;20286;-80
2022/07/25 01:42:54;;;;;;;5.10;4.68;;;25.10;99.90;;;;;;4231602;28;20226;-80
2022/07/25 01:44:56;;;;;;;5.55;5.03;;;25.10;99.90;;;;;;4231277;28;20280;-81
2022/07/25 01:46:59;;;;;;;5.60;5.05;;;25.10;99.90;;;;;;4230455;28;20259;-81
2022/07/25 01:49:01;;;;;;;6.28;5.07;;;25.10;99.90;;;;;;4231147;28;20234;-81
2022/07/25 01:51:04;;;;;;;6.13;5.53;;;25.10;99.90;;;;;;4231018;28;20217;-81
2022/07/25 01:53:07;;;;;;;5.30;4.80;;;25.10;99.90;;;;;;4230762;28;20262;-81
2022/07/25 01:55:10;;;;;;;5.53;5.03;;;25.10;99.90;;;;;;4230785;28;20293;-81
2022/07/25 01:57:12;;;;;;;5.57;5.07;;;25.10;99.90;;;;;;4231306;28;20209;-81
2022/07/25 01:59:15;;;;;;;5.72;4.85;;;25.10;99.90;;;;;;4230624;28;20685;-81
2022/07/25 02:01:17;;;;;;;5.97;5.20;;;25.10;99.90;;;;;;4231082;28;20611;-81
2022/07/25 02:03:32;;;;;;;5.90;5.25;;;25.10;99.90;;;;;;4230656;28;20618;-81
2022/07/25 02:05:34;;;;;;;5.35;4.85;;;25.10;99.90;;;;;;4230620;28;20614;-81
2022/07/25 02:07:36;;;;;;;6.13;5.53;;;25.10;99.90;;;;;;4230598;28;20213;-81
2022/07/25 02:09:40;;;;;;;5.57;4.70;;;25.10;99.90;;;;;;4230751;28;20255;-81
2022/07/25 02:11:42;;;;;;;5.65;5.13;;;25.10;99.90;;;;;;4230473;28;20634;-81
2022/07/25 02:13:45;;;;;;;5.40;4.90;;;25.10;99.90;;;;;;4230703;28;20290;-81
2022/07/25 02:15:47;;;;;;;5.78;5.18;;;25.10;99.90;;;;;;4231046;28;20214;-81
2022/07/25 02:17:49;;;;;;;5.50;4.95;;;25.10;99.90;;;;;;4230461;28;20270;-81
2022/07/25 02:19:52;;;;;;;5.28;4.78;;;25.10;99.90;;;;;;4230696;28;20238;-81
2022/07/25 02:21:54;;;;;;;5.50;4.70;;;25.10;99.90;;;;;;4230151;28;20213;-81
2022/07/25 02:23:56;;;;;;;5.63;5.10;;;25.00;99.90;;;;;;4230117;28;20230;-81
2022/07/25 02:26:00;;;;;;;5.07;4.50;;;25.10;99.90;;;;;;4230434;28;20673;-81
2022/07/25 02:28:02;;;;;;;5.60;5.10;;;25.10;99.90;;;;;;4230721;28;20217;-81
2022/07/25 02:30:06;;;;;;;6.45;5.40;;;25.10;99.90;;;;;;4230633;28;20214;-81
2022/07/25 02:32:08;;;;;;;5.65;5.15;;;25.00;99.90;;;;;;4229946;28;20255;-81
2022/07/25 02:34:10;;;;;;;4.95;4.55;;;25.10;99.90;;;;;;4230595;28;20210;-81
2022/07/25 02:36:13;;;;;;;5.22;4.63;;;25.00;99.90;;;;;;4230347;28;20218;-81
2022/07/25 02:38:18;;;;;;;5.38;4.88;;;25.00;99.90;;;;;;4230229;28;20246;-81
2022/07/25 02:40:20;;;;;;;5.50;5.00;;;25.00;99.90;;;;;;4230008;28;20234;-81
2022/07/25 02:42:24;;;;;;;5.22;4.72;;;25.00;99.90;;;;;;4230615;28;20244;-81
2022/07/25 02:44:26;;;;;;;5.88;5.05;;;25.00;99.90;;;;;;4230285;28;20254;-81
2022/07/25 02:46:29;;;;;;;5.78;5.18;;;25.00;99.90;;;;;;4230126;28;20214;-81
2022/07/25 02:48:31;;;;;;;5.82;5.32;;;25.00;99.90;;;;;;4229927;28;20242;-81
2022/07/25 02:50:33;;;;;;;5.57;5.07;;;25.00;99.90;;;;;;4230134;28;20214;-81
2022/07/25 02:52:35;;;;;;;6.25;5.15;;;25.00;99.90;;;;;;4230026;28;20303;-81
2022/07/25 02:54:38;;;;;;;5.53;5.03;;;25.00;99.90;;;;;;4230185;28;20217;-81
2022/07/25 02:56:40;;;;;;;5.75;5.15;;;25.00;99.90;;;;;;4229805;28;20206;-81
2022/07/25 02:58:44;;;;;;;6.38;5.55;;;25.00;99.90;;;;;;4229317;28;20263;-81
2022/07/25 03:00:47;;;;;;;6.43;5.30;;;25.00;99.90;;;;;;4230009;28;20210;-81
2022/07/25 03:02:50;;;;;;;5.20;4.70;;;25.00;99.90;;;;;;4229887;28;20611;-81
2022/07/25 03:04:52;;;;;;;5.43;4.90;;;25.00;99.90;;;;;;4229930;28;20217;-81
2022/07/25 03:06:54;;;;;;;5.60;5.10;;;25.00;99.90;;;;;;4230008;28;20591;-81
2022/07/25 03:08:57;;;;;;;6.65;5.40;;;25.00;99.90;;;;;;4230110;28;20237;-81
2022/07/25 03:10:59;;;;;;;5.63;5.13;;;25.00;99.90;;;;;;4229755;28;20290;-80
2022/07/25 03:13:01;;;;;;;5.47;4.95;;;25.00;99.90;;;;;;4230011;28;20282;-80
2022/07/25 03:15:06;;;;;;;5.15;4.75;;;25.00;99.90;;;;;;4229688;28;20217;-80
2022/07/25 03:17:08;;;;;;;5.45;4.95;;;25.00;99.90;;;;;;4229401;28;20613;-80
2022/07/25 03:19:12;;;;;;;5.65;5.15;;;25.00;99.90;;;;;;4229971;28;20205;-80
2022/07/25 03:21:14;;;;;;;5.22;4.75;;;25.00;99.90;;;;;;4229961;28;20217;-80
2022/07/25 03:23:16;;;;;;;5.90;5.30;;;24.90;99.90;;;;;;4229982;28;20250;-79
2022/07/25 03:25:19;;;;;;;5.68;5.18;;;25.00;99.90;;;;;;4229822;28;20598;-79
2022/07/25 03:27:21;;;;;;;6.75;5.20;;;24.90;99.90;;;;;;4230314;28;20626;-80
2022/07/25 03:29:23;;;;;;;6.28;5.68;;;25.00;99.90;;;;;;4229759;28;20233;-79
2022/07/25 03:31:27;;;;;;;5.95;5.35;;;25.00;99.90;;;;;;4229829;28;20722;-79
2022/07/25 03:33:29;;;;;;;5.70;5.20;;;25.00;99.90;;;;;;4229778;28;20255;-79
2022/07/25 03:35:32;;;;;;;5.40;4.90;;;25.00;99.90;;;;;;4229992;28;20209;-80
2022/07/25 03:37:34;;;;;;;5.72;5.13;;;25.00;99.90;;;;;;4229891;28;20665;-79
2022/07/25 03:39:36;;;;;;;5.90;5.18;;;25.00;99.90;;;;;;4229515;28;20262;-79
2022/07/25 03:41:38;;;;;;;5.43;4.93;;;25.00;99.90;;;;;;4229382;28;20766;-79
2022/07/25 03:43:41;;;;;;;5.53;5.03;;;24.90;99.90;;;;;;4229602;28;20719;-79
2022/07/25 03:45:43;;;;;;;5.50;5.00;;;24.90;99.90;;;;;;4230265;28;20218;-79
2022/07/25 03:47:47;;;;;;;7.25;4.78;;;25.00;99.90;;;;;;4229462;28;20213;-79
2022/07/25 03:49:49;;;;;;;5.30;4.72;;;25.00;99.90;;;;;;4229746;28;20271;-79
2022/07/25 03:51:51;;;;;;;5.40;4.90;;;24.90;99.90;;;;;;4229329;28;20243;-79
2022/07/25 03:54:03;;;;;;;5.50;5.00;;;24.90;99.90;;;;;;4229651;28;20263;-79
2022/07/25 03:56:06;;;;;;;5.55;5.05;;;24.90;99.90;;;;;;4229751;28;20217;-79
2022/07/25 03:58:08;;;;;;;5.40;4.90;;;25.00;99.90;;;;;;4229319;28;20217;-79
2022/07/25 04:00:12;;;;;;;5.43;4.72;;;24.90;99.90;;;;;;4229612;28;20315;-79
2022/07/25 04:02:14;;;;;;;5.55;4.93;;;24.90;99.90;;;;;;4229161;28;20263;-81
2022/07/25 04:04:18;;;;;;;5.38;4.88;;;24.90;99.90;;;;;;4230053;28;20278;-81
2022/07/25 04:06:22;;;;;;;5.22;4.72;;;24.90;99.90;;;;;;4229553;28;20218;-82
2022/07/25 04:08:24;;;;;;;6.10;5.53;;;24.90;99.90;;;;;;4229812;28;20601;-81
2022/07/25 04:10:26;;;;;;;5.40;4.90;;;24.90;99.90;;;;;;4232723;28;20685;-81
2022/07/25 04:12:29;;;;;;;5.72;5.22;;;24.90;99.90;;;;;;4232671;28;20221;-81
2022/07/25 04:14:31;;;;;;;5.20;4.70;;;24.90;99.90;;;;;;4232476;28;20654;-81
2022/07/25 04:16:34;;;;;;;5.45;4.95;;;24.90;99.90;;;;;;4233099;28;21099;-81
2022/07/25 04:18:36;;;;;;;5.68;5.18;;;24.90;99.90;;;;;;4232738;28;20206;-82
2022/07/25 04:20:40;;;;;;;5.60;5.10;;;24.90;99.90;;;;;;4232751;28;20550;-82
2022/07/25 04:22:42;;;;;;;5.75;5.20;;;24.90;99.90;;;;;;4232594;28;20214;-82
2022/07/25 04:24:45;;;;;;;5.40;4.90;;;24.90;99.90;;;;;;4232470;28;20314;-82
2022/07/25 04:26:47;;;;;;;5.07;4.60;;;24.90;99.90;;;;;;4232592;28;20658;-81
2022/07/25 04:28:49;;;;;;;5.47;4.85;;;24.90;99.90;;;;;;4232722;28;20598;-82
2022/07/25 04:30:52;;;;;;;5.82;5.20;;;24.90;99.90;;;;;;4232479;28;20347;-81
2022/07/25 04:32:55;;;;;;;6.03;4.40;;;24.90;99.90;;;;;;4232545;28;20213;-82
2022/07/25 04:34:57;;;;;;;5.72;4.95;;;24.90;99.90;;;;;;4232408;28;20221;-81
2022/07/25 04:37:01;;;;;;;5.43;4.93;;;24.90;99.90;;;;;;4232132;28;20218;-81
2022/07/25 04:39:03;;;;;;;5.43;4.90;;;24.90;99.90;;;;;;4232197;28;20274;-82
2022/07/25 04:41:08;;;;;;;5.68;5.18;;;24.90;99.90;;;;;;4232076;28;20286;-82
2022/07/25 04:43:11;;;;;;;5.38;4.75;;;24.90;99.90;;;;;;4232124;28;20263;-82
2022/07/25 04:45:13;;;;;;;5.18;4.68;;;24.90;99.90;;;;;;4232421;28;20218;-82
2022/07/25 04:47:15;;;;;;;5.30;4.55;;;24.90;99.90;;;;;;4231880;28;20213;-81
2022/07/25 04:49:18;;;;;;;6.10;4.57;;;24.90;99.90;;;;;;4232316;28;20213;-82
2022/07/25 04:51:20;;;;;;;6.10;5.00;;;24.90;99.90;;;;;;4232103;28;20213;-82
2022/07/25 04:53:24;;;;;;;5.22;4.72;;;24.90;99.90;;;;;;4232228;28;20214;-83
2022/07/25 04:55:27;;;;;;;5.47;4.97;;;24.90;99.90;;;;;;4231855;28;20218;-82
2022/07/25 04:57:29;;;;;;;5.28;4.78;;;24.90;99.90;;;;;;4232108;28;20267;-82
2022/07/25 04:59:31;;;;;;;5.50;5.00;;;24.90;99.90;;;;;;4231848;28;20255;-82
2022/07/25 05:01:34;;;;;;;4.80;4.30;;;24.90;99.90;;;;;;4232097;28;20205;-82
2022/07/25 05:03:36;;;;;;;5.35;4.85;;;24.80;99.90;;;;;;4231725;28;20664;-82
2022/07/25 05:05:39;;;;;;;5.43;4.97;;;24.90;99.90;;;;;;4231756;28;20209;-82
2022/07/25 05:07:41;;;;;;;5.60;5.03;;;24.80;99.90;;;;;;4232005;28;20666;-82
2022/07/25 05:09:45;;;;;;;5.70;4.57;;;24.90;99.90;;;;;;4231725;28;20754;-82
2022/07/25 05:11:48;;;;;;;5.95;4.60;;;24.90;99.90;;;;;;4232040;28;20217;-83
2022/07/25 05:13:50;;;;;;;5.03;4.53;;;24.80;99.90;;;;;;4231840;28;20218;-82
2022/07/25 05:15:53;;;;;;;4.68;4.28;;;24.80;99.90;;;;;;4232043;28;20261;-82
2022/07/25 05:17:55;;;;;;;4.68;4.28;;;24.90;99.90;;;;;;4231571;28;20214;-82
2022/07/25 05:19:57;;;;;;;5.28;4.40;;;24.80;99.90;;;;;;4231281;28;20218;-83
2022/07/25 05:22:00;;;;;;;5.82;4.40;;;24.90;99.90;;;;;;4231407;28;20222;-82
2022/07/25 05:24:02;;;;;;;5.43;4.53;;;24.80;99.90;;;;;;4231809;28;20267;-82
2022/07/25 05:26:06;;;;;;;5.15;4.65;;;24.90;99.90;;;;;;4231495;28;20262;-83
2022/07/25 05:28:08;;;;;;;4.20;3.80;;;24.90;99.90;;;;;;4231495;28;20218;-82
2022/07/25 05:30:12;;;;;;;4.70;4.30;;;24.90;99.90;;;;;;4231383;28;20697;-81
2022/07/25 05:32:14;;;;;;;4.70;4.30;;;24.80;99.90;;;;;;4231311;28;20259;-83
2022/07/25 05:34:17;;;;;;;5.55;4.40;;;24.80;99.90;;;;;;4231628;28;20230;-82
2022/07/25 05:36:19;;;;;;;4.68;4.28;;;24.80;99.90;;;;;;4231194;28;20262;-82
2022/07/25 05:38:21;;;;;;;5.25;4.22;;;24.80;99.90;;;;;;4231518;28;20259;-82
2022/07/25 05:40:24;;;;;;;5.05;4.45;;;24.80;99.90;;;;;;4231276;28;20246;-82
2022/07/25 05:42:27;;;;;;;4.32;3.92;;;24.80;99.90;;;;;;4231214;28;20278;-80
2022/07/25 05:44:29;;;;;;;5.32;4.57;;;24.90;99.90;;;;;;4231010;28;20210;-80
2022/07/25 05:46:32;;;;;;;4.85;4.35;;;24.90;99.90;;;;;;4231506;28;20254;-80
2022/07/25 05:48:35;;;;;;;5.03;4.53;;;24.80;99.90;;;;;;4231362;28;20218;-80
2022/07/25 05:50:37;;;;;;;4.45;4.05;;;24.80;99.90;;;;;;4231081;28;20727;-80
2022/07/25 05:52:40;;;;;;;5.65;4.60;;;24.80;99.90;;;;;;4231016;28;20251;-80
2022/07/25 05:54:42;;;;;;;4.72;4.25;;;24.90;99.90;;;;;;4230707;28;20214;-80
2022/07/25 05:56:44;;;;;;;4.80;4.30;;;24.90;99.90;;;;;;4230947;28;20286;-79
2022/07/25 05:58:48;;;;;;;4.95;4.53;;;24.80;99.90;;;;;;4230891;28;20730;-79
2022/07/25 06:00:51;;;;;;;4.65;4.20;;;24.80;99.90;;;;;;4231211;28;20205;-79
2022/07/25 06:02:53;;;;;;;4.45;4.00;;;24.80;99.90;;;;;;4231029;28;20210;-79
2022/07/25 06:04:55;;;;;;;4.28;3.80;;;24.80;99.90;;;;;;4230509;28;20618;-79
2022/07/25 06:06:58;;;;;;;4.40;4.00;;;24.80;99.90;;;;;;4230681;28;20670;-79
2022/07/25 06:09:00;;;;;;;4.40;4.00;;;24.80;99.90;;;;;;4230754;28;20354;-79
2022/07/25 06:11:03;;;;;;;5.25;4.25;;;24.80;99.90;;;;;;4230615;28;20259;-79
2022/07/25 06:13:06;;;;;;;4.82;4.32;;;24.80;99.90;;;;;;4230740;28;20712;-79
2022/07/25 06:15:10;;;;;;;4.78;4.20;;;24.80;99.90;;;;;;4230993;28;20217;-79
2022/07/25 06:17:13;;;;;;;4.25;3.85;;;24.80;99.90;;;;;;4230212;28;20210;-79
2022/07/25 06:19:15;;;;;;;4.55;4.05;;;24.80;99.90;;;;;;4230725;28;20217;-79
2022/07/25 06:21:17;;;;;;;4.53;4.13;;;24.80;99.90;;;;;;4230745;28;20661;-79
2022/07/25 06:23:20;;;;;;;9.73;4.32;;;24.80;99.90;;;;;;4230393;28;20217;-79
2022/07/25 06:25:23;;;;;;;4.13;3.72;;;24.80;99.90;;;;;;4230848;28;20218;-80
2022/07/25 06:27:25;;;;;;;6.50;4.32;;;24.90;99.90;;;;;;4230801;28;20271;-80
2022/07/25 06:29:27;;;;;;;6.68;4.28;;;24.80;99.90;;;;;;4230088;28;20259;-80
2022/07/25 06:31:31;;;;;;;5.30;4.20;;;24.90;99.90;;;;;;4230239;28;20241;-80
2022/07/25 06:33:34;;;;;;;4.30;3.90;;;24.80;99.90;;;;;;4230407;28;20275;-80
2022/07/25 06:35:36;;;;;;;6.18;4.20;;;24.80;99.90;;;;;;4230462;28;20255;-80
2022/07/25 06:37:39;;;;;;;4.68;4.00;;;24.80;99.90;;;;;;4230562;28;20210;-79
2022/07/25 06:39:41;;;;;;;11.38;4.43;;;24.80;99.90;;;;;;4230483;28;20214;-79
2022/07/25 06:41:43;;;;;;;5.22;4.40;;;24.80;99.90;;;;;;4230138;28;20229;-80
2022/07/25 06:43:46;;;;;;;4.82;3.85;;;24.80;99.90;;;;;;4230076;28;20259;-80
2022/07/25 06:45:48;;;;;;;4.22;3.83;;;24.80;99.90;;;;;;4230575;28;20225;-80
2022/07/25 06:47:52;;;;;;;5.15;4.50;;;24.80;99.90;;;;;;4230349;28;20206;-79
2022/07/25 06:49:54;;;;;;;4.38;3.97;;;24.80;99.90;;;;;;4230119;28;20209;-79
2022/07/25 06:51:56;;;;;;;5.18;4.20;;;24.80;99.90;;;;;;4230212;28;20602;-80
2022/07/25 06:54:00;;;;;;;5.50;3.70;;;24.80;99.90;;;;;;4230094;28;20235;-80
2022/07/25 06:56:02;;;;;;;4.20;3.90;;;24.80;99.90;;;;;;4230061;28;20243;-80
2022/07/25 06:58:04;;;;;;;4.18;3.58;;;24.80;99.90;;;;;;4230127;28;20213;-80
2022/07/25 07:00:10;;;;;;;4.00;3.60;;;24.80;99.90;;;;;;4230349;28;20552;-79
2022/07/25 07:02:12;;;;;;;4.25;3.85;;;24.80;99.90;;;;;;4229735;28;20669;-79
2022/07/25 07:04:18;;;;;;;4.22;3.83;;;24.80;99.90;;;;;;4229766;28;20702;-79
2022/07/25 07:06:20;;;;;;;5.70;3.90;;;24.80;99.90;;;;;;4229702;28;20271;-79
2022/07/25 07:08:23;;;;;;;3.88;3.45;;;24.80;99.90;;;;;;4230282;28;20282;-80
2022/07/25 07:10:26;;;;;;;4.20;3.40;;;24.80;99.90;;;;;;4229888;28;20605;-79
2022/07/25 07:12:28;;;;;;;4.88;3.63;;;24.80;99.90;;;;;;4229833;28;20213;-79
2022/07/25 07:14:31;;;;;;;4.03;3.60;;;24.90;99.90;;;;;;4229625;28;20218;-79
2022/07/25 07:16:33;;;;;;;3.65;3.30;;;24.80;99.90;;;;;;4229891;28;20213;-80
2022/07/25 07:18:35;;;;;;;4.13;3.47;;;24.80;99.90;;;;;;4229842;28;20214;-80
2022/07/25 07:20:39;;;;;;;4.07;3.50;;;24.80;99.90;;;;;;4229933;28;20730;-80
2022/07/25 07:22:45;;;;;;;4.25;3.85;;;24.80;99.90;;;;;;4230361;28;20209;-77
2022/07/25 07:24:47;;;;;;;8.55;4.28;;;24.80;99.90;;;;;;4229768;28;20217;-79
2022/07/25 07:26:49;;;;;;;7.85;3.72;;;24.80;99.90;;;;;;4229715;28;20274;-79
2022/07/25 07:28:53;;;;;;;4.00;3.60;;;24.80;99.90;;;;;;4229529;28;20210;-79
2022/07/25 07:30:55;;;;;;;11.90;4.05;;;24.80;99.90;;;;;;4229358;28;20262;-79
2022/07/25 07:32:58;;;;;;;8.57;4.18;;;24.80;99.90;;;;;;4230284;28;20213;-81
2022/07/25 07:35:00;;;;;;;5.00;3.88;;;24.70;99.90;;;;;;4229895;28;20278;-82
2022/07/25 07:37:04;;;;;;;6.50;3.80;;;24.70;99.90;;;;;;4229807;28;20217;-83
2022/07/25 07:39:06;;;;;;;6.10;3.40;;;24.70;99.90;;;;;;4229411;28;20243;-83
2022/07/25 07:41:09;;;;;;;6.20;3.55;;;24.70;99.90;;;;;;4229521;28;20230;-83
2022/07/25 07:43:11;;;;;;;5.25;3.30;;;24.70;99.90;;;;;;4229857;28;20653;-83
2022/07/25 07:45:15;;;;;;;7.18;3.72;;;24.70;99.90;;;;;;4232913;28;20253;-81
2022/07/25 07:47:20;;;;;;;29.55;4.25;;;24.70;99.90;;;;;;4233207;28;20210;-87
2022/07/25 07:49:22;;;;;;;10.48;3.30;;;24.70;99.90;;;;;;4233877;28;20214;-80
2022/07/25 07:51:25;;;;;;;20.52;4.95;;;24.60;99.90;;;;;;4234999;28;20230;-86
2022/07/25 07:55:47;;;;;;;15.65;5.07;;;24.70;99.90;;;;;;4232922;28;20255;-85
2022/07/25 07:57:49;;;;;;;13.98;4.60;;;24.70;99.90;;;;;;4233372;28;20210;-85
2022/07/25 07:59:52;;;;;;;7.80;3.95;;;24.70;99.90;;;;;;4233312;28;20267;-85
2022/07/25 08:01:54;;;;;;;10.73;3.50;;;24.60;99.90;;;;;;4232980;28;20235;-85
2022/07/25 08:03:56;;;;;;;12.77;4.55;;;24.70;99.90;;;;;;4232900;28;20217;-85
2022/07/25 08:05:59;;;;;;;7.32;3.85;;;24.70;99.90;;;;;;4232593;28;20235;-83
2022/07/25 08:08:02;;;;;;;9.43;3.90;;;24.70;99.90;;;;;;4233288;28;20601;-83
2022/07/25 08:10:06;;;;;;;8.23;3.58;;;24.70;99.90;;;;;;4232694;28;20262;-85
2022/07/25 08:12:09;;;;;;;7.90;3.58;;;24.70;99.90;;;;;;4232788;28;20287;-85
2022/07/25 08:14:11;;;;;;;6.43;3.47;;;24.70;99.90;;;;;;4233071;28;20210;-85
2022/07/25 08:16:13;;;;;;;6.13;3.00;;;24.70;99.90;;;;;;4232822;28;20213;-85
2022/07/25 08:18:16;;;;;;;7.60;3.47;;;24.70;99.90;;;;;;4233224;28;20243;-85
2022/07/25 08:20:21;;;;;;;8.40;3.58;;;24.70;99.90;;;;;;4232772;28;20274;-85
2022/07/25 08:22:24;;;;;;;10.18;3.92;;;24.70;99.90;;;;;;4232668;28;20218;-85
2022/07/25 08:24:26;;;;;;;6.80;3.33;;;24.70;99.90;;;;;;4232356;28;20262;-85
2022/07/25 08:26:32;;;;;;;5.63;3.50;;;24.70;99.90;;;;;;4232888;28;20214;-85
2022/07/25 08:28:34;;;;;;;6.15;3.35;;;24.80;99.90;;;;;;4232562;28;20213;-85
2022/07/25 08:30:38;;;;;;;6.70;2.75;;;24.80;99.90;;;;;;4232713;28;20337;-85
2022/07/25 08:32:48;;;;;;;5.32;3.38;;;24.80;99.90;;;;;;4233070;28;20245;-84
2022/07/25 08:34:50;;;;;;;6.30;3.65;;;24.80;99.90;;;;;;4232841;28;20546;-85
2022/07/25 08:36:52;;;;;;;5.68;3.00;;;24.80;99.90;;;;;;4232455;28;20279;-85
2022/07/25 08:38:55;;;;;;;5.35;3.03;;;24.80;99.90;;;;;;4232079;28;20209;-85
2022/07/25 08:40:58;;;;;;;5.65;3.28;;;24.80;99.90;;;;;;4231693;28;20286;-85
2022/07/25 08:43:02;;;;;;;5.07;2.90;;;24.80;99.90;;;;;;4232176;28;20722;-85
2022/07/25 08:45:07;;;;;;;4.35;2.53;;;24.90;99.90;;;;;;4232028;28;20221;-85
2022/07/25 08:47:14;;;;;;;5.90;2.90;;;24.80;99.90;;;;;;4231907;28;20239;-84
2022/07/25 08:49:17;;;;;;;6.15;3.47;;;24.80;99.90;;;;;;4232081;28;20213;-85
2022/07/25 08:51:19;;;;;;;6.93;3.08;;;24.80;99.90;;;;;;4231849;28;20681;-85
2022/07/25 08:53:21;;;;;;;4.60;2.83;;;24.90;99.90;;;;;;4232630;28;20194;-85
2022/07/25 08:55:24;;;;;;;4.88;3.00;;;24.80;99.90;;;;;;4230732;28;20650;-85
2022/07/25 08:57:26;;;;;;;4.65;2.63;;;24.90;99.90;;;;;;4231912;28;20267;-84
2022/07/25 08:59:31;;;;;;;5.78;2.83;;;24.90;99.90;;;;;;4231743;28;20262;-84
2022/07/25 09:01:34;;;;;;;6.85;2.80;;;24.90;99.90;;;;;;4231658;28;20268;-85
2022/07/25 09:03:36;;;;;;;6.25;2.95;;;24.90;99.90;;;;;;4232241;28;20542;-85
2022/07/25 09:05:39;;;;;;;3.33;2.70;;;24.90;99.90;;;;;;4232007;28;20255;-84
2022/07/25 09:07:41;;;;;;;4.90;2.92;;;24.90;99.90;;;;;;4231797;28;20262;-84
2022/07/25 09:09:44;;;;;;;6.30;3.08;;;24.90;99.90;;;;;;4231654;28;20243;-85
2022/07/25 09:11:46;;;;;;;4.05;2.90;;;24.90;99.90;;;;;;4231734;28;20669;-85
2022/07/25 09:13:58;;;;;;;6.57;3.22;;;24.90;99.90;;;;;;4231797;28;20217;-85
2022/07/25 09:16:04;;;;;;;6.45;3.00;;;24.90;99.90;;;;;;4231604;28;20286;-86
2022/07/25 09:18:09;;;;;;;4.60;2.97;;;24.90;99.90;;;;;;4231841;28;20218;-85
2022/07/25 09:20:11;;;;;;;4.47;2.85;;;24.90;99.90;;;;;;4231568;28;20263;-85
2022/07/25 09:22:13;;;;;;;5.70;3.08;;;24.90;99.90;;;;;;4231610;28;20276;-84
2022/07/25 09:24:17;;;;;;;3.33;2.47;;;24.90;99.90;;;;;;4231983;28;20722;-85
2022/07/25 09:26:20;;;;;;;5.38;2.90;;;24.90;99.90;;;;;;4231277;28;20258;-85
2022/07/25 09:28:22;;;;;;;6.30;3.00;;;25.00;99.90;;;;;;4231854;28;20615;-85
2022/07/25 09:30:24;;;;;;;4.13;2.75;;;24.90;99.90;;;;;;4231368;28;20622;-84
2022/07/25 09:32:28;;;;;;;4.88;2.30;;;24.90;99.90;;;;;;4231315;28;20234;-84
2022/07/25 09:34:33;;;;;;;3.25;2.55;;;24.90;99.90;;;;;;4231582;28;20218;-85
2022/07/25 09:36:38;;;;;;;3.60;2.60;;;25.00;99.90;;;;;;4231346;28;20263;-83
2022/07/25 09:38:50;;;;;;;6.38;2.40;;;25.00;99.90;;;;;;4231000;28;20218;-84
2022/07/25 09:40:57;;;;;;;3.22;2.80;;;25.00;99.90;;;;;;4230932;28;20635;-84
2022/07/25 09:42:59;;;;;;;4.03;2.45;;;25.00;99.90;;;;;;4231449;28;20205;-84
2022/07/25 09:45:05;;;;;;;2.88;2.15;;;25.00;99.90;;;;;;4231112;28;20217;-84
2022/07/25 09:47:10;;;;;;;3.13;2.15;;;25.00;99.90;;;;;;4230839;28;20255;-84
2022/07/25 09:49:14;;;;;;;4.38;2.72;;;25.10;99.90;;;;;;4230880;28;20218;-84
2022/07/25 09:51:17;;;;;;;3.78;2.67;;;25.00;99.90;;;;;;4231042;28;20248;-84
2022/07/25 09:53:19;;;;;;;6.35;2.85;;;25.00;99.90;;;;;;4231484;28;20218;-84
2022/07/25 09:55:24;;;;;;;4.28;2.50;;;25.10;99.90;;;;;;4230993;28;20226;-84
2022/07/25 09:57:27;;;;;;;6.75;2.75;;;25.10;99.90;;;;;;4231053;28;20575;-84
2022/07/25 09:59:30;;;;;;;5.35;2.60;;;25.10;99.90;;;;;;4231495;28;20254;-84
2022/07/25 10:01:36;;;;;;;3.03;2.50;;;25.10;99.90;;;;;;4230577;28;20209;-83
2022/07/25 10:03:48;;;;;;;3.10;2.15;;;25.10;99.90;;;;;;4230943;28;20218;-84
2022/07/25 10:06:03;;;;;;;3.22;2.30;;;25.10;99.90;;;;;;4231123;28;20322;-84
2022/07/25 10:08:07;;;;;;;5.70;2.15;;;25.10;99.90;;;;;;4230280;28;20214;-84
2022/07/25 10:10:27;;;;;;;4.55;2.70;;;25.10;99.90;;;;;;4230625;28;20255;-84
2022/07/25 10:12:29;;;;;;;4.65;2.22;;;25.10;99.90;;;;;;4231126;28;20623;-84
2022/07/25 10:14:32;;;;;;;5.50;2.70;;;25.20;99.90;;;;;;4230735;28;20217;-84
2022/07/25 10:16:45;;;;;;;4.53;2.88;;;25.20;99.90;;;;;;4230285;28;20217;-84
2022/07/25 10:18:50;;;;;;;5.85;2.75;;;25.20;99.90;;;;;;4231078;28;20266;-84
2022/07/25 10:20:55;;;;;;;3.53;2.25;;;25.20;99.90;;;;;;4230611;28;20243;-84
2022/07/25 10:22:58;;;;;;;3.15;2.20;;;25.20;99.90;;;;;;4230788;28;20210;-86
2022/07/25 10:25:10;;;;;;;3.17;2.40;;;25.20;99.90;;;;;;4230904;28;20214;-84
2022/07/25 10:27:14;;;;;;;3.90;2.50;;;25.20;99.90;;;;;;4230846;28;20221;-84
2022/07/25 10:29:16;;;;;;;3.30;2.05;;;25.20;99.90;;;;;;4230756;28;20229;-84
2022/07/25 10:31:22;;;;;;;4.00;2.33;;;25.30;99.90;;;;;;4230399;28;20271;-84
2022/07/25 10:33:25;;;;;;;6.72;2.53;;;25.20;99.90;;;;;;4230512;28;20234;-84
2022/07/25 10:35:28;;;;;;;4.13;2.20;;;25.20;99.90;;;;;;4230569;28;20251;-85
2022/07/25 10:37:36;;;;;;;3.80;2.28;;;25.20;99.90;;;;;;4230263;28;20218;-85
2022/07/25 10:39:39;;;;;;;3.53;2.22;;;25.30;99.90;;;;;;4230382;28;20214;-85
2022/07/25 10:41:44;;;;;;;6.03;2.45;;;25.30;99.90;;;;;;4230115;28;20287;-84